Time;durP1;ratioP1;P1;durP2;ratioP2;P2;SDS_P1;SDS_P2;PMS_P1;PMS_P2;Temp;Humidity;BMP_temperature;BMP_pressure;BME280_temperature;BME280_humidity;BME280_pressure;Samples;Min_cycle;Max_cycle;Signal;HPM_P1;HPM_P2
2020/12/18 00:03:08;;;;;;;31.08;16.67;;;4.70;99.10;;;;;;10360819;28;20636;-68
2020/12/18 00:08:10;;;;;;;49.95;16.83;;;4.80;98.80;;;;;;10356769;28;20050;-69
2020/12/18 00:13:11;;;;;;;21.67;13.43;;;4.70;98.20;;;;;;10387941;28;20084;-69
2020/12/18 00:18:13;;;;;;;29.33;17.65;;;4.60;98.70;;;;;;10368795;28;20077;-68
2020/12/18 00:23:27;;;;;;;29.63;17.02;;;4.60;99.00;;;;;;10367942;28;20561;-68
2020/12/18 00:28:30;;;;;;;26.73;14.00;;;4.70;99.60;;;;;;10354050;28;20556;-68
2020/12/18 00:33:31;;;;;;;19.05;11.18;;;4.80;99.10;;;;;;10368847;28;20085;-68
2020/12/18 00:38:33;;;;;;;23.88;13.90;;;5.00;99.90;;;;;;10352862;28;20401;-68
2020/12/18 00:43:35;;;;;;;21.05;11.77;;;4.90;99.70;;;;;;10352697;28;20046;-68
2020/12/18 00:48:36;;;;;;;20.98;13.75;;;4.90;99.90;;;;;;10369252;28;20129;-68
2020/12/18 00:53:48;;;;;;;99.20;13.95;;;5.00;99.80;;;;;;10347237;28;20049;-69
2020/12/18 00:58:50;;;;;;;19.13;12.93;;;5.00;99.30;;;;;;10370393;28;20094;-68
2020/12/18 01:03:51;;;;;;;14.20;9.95;;;5.00;99.70;;;;;;10370409;28;20069;-68
2020/12/18 01:08:52;;;;;;;20.50;11.65;;;5.10;99.90;;;;;;10366745;28;20131;-69
2020/12/18 01:13:54;;;;;;;18.60;12.45;;;5.10;99.80;;;;;;10366701;28;20125;-69
2020/12/18 01:18:56;;;;;;;17.48;11.00;;;5.20;99.70;;;;;;10363544;28;20482;-68
2020/12/18 01:24:00;;;;;;;16.23;10.32;;;5.20;99.80;;;;;;10369338;28;20469;-69
2020/12/18 01:29:02;;;;;;;12.45;9.32;;;5.30;99.70;;;;;;10371138;28;20082;-69
2020/12/18 01:34:04;;;;;;;17.98;9.63;;;5.30;99.70;;;;;;10362971;28;20149;-69
2020/12/18 01:39:06;;;;;;;15.88;9.00;;;5.20;99.40;;;;;;10385193;28;20445;-69
2020/12/18 01:44:07;;;;;;;16.58;10.82;;;5.10;99.70;;;;;;10364366;28;20084;-68
2020/12/18 01:49:10;;;;;;;11.45;8.13;;;5.20;99.60;;;;;;10363959;28;20513;-69
2020/12/18 01:54:23;;;;;;;20.33;9.90;;;5.30;99.40;;;;;;10369347;28;20042;-68
2020/12/18 01:59:24;;;;;;;15.07;8.43;;;5.00;99.20;;;;;;10368891;28;20085;-68
2020/12/18 02:04:26;;;;;;;17.15;10.80;;;5.00;99.90;;;;;;10367349;28;20125;-69
2020/12/18 02:09:28;;;;;;;13.88;9.20;;;5.00;99.60;;;;;;10366964;28;20053;-69
2020/12/18 02:14:29;;;;;;;27.38;18.17;;;5.10;99.70;;;;;;10353612;28;20096;-69
2020/12/18 02:19:33;;;;;;;23.35;15.18;;;5.20;99.60;;;;;;10342904;28;20080;-68
2020/12/18 02:24:48;;;;;;;28.00;19.67;;;5.20;99.30;;;;;;10362969;28;20046;-69
2020/12/18 02:29:51;;;;;;;35.33;21.95;;;5.10;99.80;;;;;;10368790;28;20136;-68
2020/12/18 02:34:52;;;;;;;27.42;18.17;;;5.10;99.60;;;;;;10367011;28;20054;-68
2020/12/18 02:40:00;;;;;;;23.13;13.90;;;5.10;99.90;;;;;;10336311;28;20318;-68
2020/12/18 02:45:03;;;;;;;22.88;14.18;;;5.00;99.90;;;;;;10364137;28;20050;-68
2020/12/18 02:50:04;;;;;;;17.80;12.45;;;4.90;99.90;;;;;;10369023;28;20049;-68
2020/12/18 02:55:06;;;;;;;19.52;14.45;;;5.10;99.90;;;;;;10368795;28;20073;-68
2020/12/18 03:00:07;;;;;;;20.65;13.10;;;5.10;99.90;;;;;;10339458;28;20144;-68
2020/12/18 03:05:09;;;;;;;17.85;11.20;;;5.00;99.90;;;;;;10365690;28;20491;-68
2020/12/18 03:10:10;;;;;;;19.65;11.75;;;5.00;99.90;;;;;;10348381;28;20074;-69
2020/12/18 03:15:12;;;;;;;18.85;11.68;;;4.90;99.90;;;;;;10368496;28;20104;-68
2020/12/18 03:20:13;;;;;;;19.13;12.52;;;5.00;99.80;;;;;;10369515;28;20137;-68
2020/12/18 03:25:20;;;;;;;20.42;13.25;;;5.00;99.70;;;;;;10368791;28;20049;-68
2020/12/18 03:30:21;;;;;;;23.52;16.45;;;5.00;99.40;;;;;;10345402;28;20109;-68
2020/12/18 03:35:23;;;;;;;24.95;16.02;;;5.00;99.40;;;;;;10329943;28;20054;-68
2020/12/18 03:40:24;;;;;;;19.88;13.27;;;4.90;99.20;;;;;;10352836;28;20104;-68
2020/12/18 03:45:26;;;;;;;14.25;8.98;;;4.90;99.20;;;;;;10347282;28;20138;-68
2020/12/18 03:50:27;;;;;;;14.35;9.68;;;4.80;98.70;;;;;;10338096;28;20134;-68
2020/12/18 03:55:37;;;;;;;16.48;10.00;;;4.80;98.80;;;;;;10337931;28;20053;-68
2020/12/18 04:00:39;;;;;;;22.63;12.13;;;4.80;98.70;;;;;;10343745;28;20050;-68
2020/12/18 04:05:40;;;;;;;17.73;12.30;;;4.70;98.80;;;;;;10376418;28;20096;-68
2020/12/18 04:10:41;;;;;;;47.00;23.05;;;4.70;99.00;;;;;;10355048;28;20081;-68
2020/12/18 04:15:43;;;;;;;21.77;15.23;;;4.60;99.20;;;;;;10356058;28;20077;-68
2020/12/18 04:20:44;;;;;;;22.27;16.17;;;4.60;99.30;;;;;;10376010;28;20046;-68
2020/12/18 04:25:53;;;;;;;14.80;10.32;;;4.40;99.20;;;;;;10374429;28;20046;-68
2020/12/18 04:30:55;;;;;;;22.30;11.43;;;4.40;99.10;;;;;;10374868;28;20058;-68
2020/12/18 04:35:57;;;;;;;41.60;15.57;;;4.50;98.80;;;;;;10340167;28;20154;-68
2020/12/18 04:40:58;;;;;;;599.60;22.67;;;4.30;98.70;;;;;;10336320;28;20088;-68
2020/12/18 04:46:00;;;;;;;414.00;17.20;;;4.20;98.20;;;;;;10368612;28;20046;-68
2020/12/18 04:51:03;;;;;;;435.73;16.30;;;4.00;98.70;;;;;;10341787;28;20065;-68
2020/12/18 04:56:13;;;;;;;330.73;16.05;;;4.00;99.20;;;;;;10334052;28;20402;-68
2020/12/18 05:01:22;;;;;;;197.15;13.07;;;4.00;99.80;;;;;;10363482;28;20134;-68
2020/12/18 05:06:24;;;;;;;221.63;16.00;;;4.10;99.50;;;;;;10371868;28;20646;-68
2020/12/18 05:11:27;;;;;;;197.23;13.38;;;4.10;99.40;;;;;;10374140;28;20085;-68
2020/12/18 05:16:28;;;;;;;279.42;16.17;;;4.10;98.90;;;;;;10363650;28;20085;-68
2020/12/18 05:21:31;;;;;;;279.33;18.35;;;4.00;99.10;;;;;;10340367;28;20056;-68
2020/12/18 05:26:36;;;;;;;164.07;12.23;;;4.10;99.50;;;;;;10340995;28;20041;-68
2020/12/18 05:31:37;;;;;;;138.98;10.73;;;4.10;99.40;;;;;;10371889;28;20108;-68
2020/12/18 05:36:42;;;;;;;368.77;17.02;;;4.00;99.50;;;;;;10365133;28;20565;-68
2020/12/18 05:41:45;;;;;;;161.70;13.52;;;4.10;99.40;;;;;;10339964;28;20042;-69
2020/12/18 05:46:46;;;;;;;132.57;10.65;;;4.10;99.20;;;;;;10372207;28;20092;-68
2020/12/18 05:51:49;;;;;;;98.30;8.77;;;4.00;99.50;;;;;;10380188;28;20502;-68
2020/12/18 05:56:51;;;;;;;265.83;17.75;;;3.90;99.90;;;;;;10335635;28;20060;-68
2020/12/18 06:01:54;;;;;;;327.17;16.42;;;3.90;99.90;;;;;;10361301;28;20160;-68
2020/12/18 06:06:56;;;;;;;360.45;20.85;;;4.00;99.90;;;;;;10360451;28;20045;-68
2020/12/18 06:11:59;;;;;;;289.60;16.65;;;4.00;99.90;;;;;;10358564;28;20057;-68
2020/12/18 06:17:12;;;;;;;275.00;15.20;;;4.00;99.90;;;;;;10359195;28;20049;-68
2020/12/18 06:22:14;;;;;;;299.05;18.00;;;4.10;99.90;;;;;;10358046;28;20513;-68
2020/12/18 06:27:18;;;;;;;149.85;14.05;;;4.10;99.90;;;;;;10359630;28;20042;-68
2020/12/18 06:32:28;;;;;;;338.27;20.35;;;4.20;99.90;;;;;;10350114;28;20054;-68
2020/12/18 06:37:32;;;;;;;149.77;15.32;;;4.20;99.90;;;;;;10362419;28;20048;-68
2020/12/18 06:42:34;;;;;;;112.45;19.00;;;4.20;99.90;;;;;;10348897;28;20056;-68
2020/12/18 06:47:37;;;;;;;202.10;25.45;;;4.10;99.90;;;;;;10358994;28;20049;-68
2020/12/18 06:52:49;;;;;;;183.88;16.90;;;4.10;99.90;;;;;;10357001;28;20129;-68
2020/12/18 06:58:05;;;;;;;121.40;15.13;;;4.30;99.90;;;;;;10360699;28;20088;-68
2020/12/18 07:03:07;;;;;;;111.20;17.83;;;4.50;99.90;;;;;;10350987;28;20084;-68
2020/12/18 07:08:17;;;;;;;214.80;17.15;;;4.50;99.90;;;;;;10351657;28;20097;-68
2020/12/18 07:13:19;;;;;;;142.75;14.32;;;4.50;99.90;;;;;;10351691;28;20042;-68
2020/12/18 07:18:26;;;;;;;299.23;18.50;;;4.60;99.90;;;;;;10361052;28;20344;-68
2020/12/18 07:23:29;;;;;;;106.18;14.32;;;4.70;99.90;;;;;;10365668;28;20045;-68
2020/12/18 07:28:32;;;;;;;138.10;14.98;;;4.70;99.90;;;;;;10359965;28;20049;-68
2020/12/18 07:33:33;;;;;;;145.35;17.08;;;4.70;99.90;;;;;;10358249;28;20056;-68
2020/12/18 07:38:35;;;;;;;245.68;20.92;;;4.60;99.90;;;;;;10352375;28;20062;-74
2020/12/18 07:43:37;;;;;;;140.90;19.05;;;4.60;99.90;;;;;;10354758;28;20514;-73
2020/12/18 07:48:41;;;;;;;86.07;15.82;;;4.70;99.90;;;;;;10339974;28;20505;-73
2020/12/18 07:53:42;;;;;;;48.25;16.05;;;4.80;99.90;;;;;;10373221;28;20140;-73
2020/12/18 07:58:45;;;;;;;68.22;20.88;;;4.80;99.90;;;;;;10339780;28;20059;-73
2020/12/18 08:03:51;;;;;;;74.60;22.13;;;4.90;99.90;;;;;;10371924;28;20092;-73
2020/12/18 08:08:58;;;;;;;16.45;11.23;;;5.10;99.90;;;;;;10376329;28;20125;-73
2020/12/18 08:14:02;;;;;;;18.92;10.75;;;5.20;99.90;;;;;;10339215;28;20077;-73
2020/12/18 08:19:10;;;;;;;21.40;11.50;;;5.30;99.90;;;;;;10372941;28;20133;-73
2020/12/18 08:24:13;;;;;;;19.40;11.65;;;5.40;99.90;;;;;;10338360;28;20133;-73
2020/12/18 08:29:18;;;;;;;21.45;13.02;;;5.50;99.90;;;;;;10342977;28;20525;-73
2020/12/18 08:34:33;;;;;;;31.67;16.48;;;5.60;99.90;;;;;;10371360;28;20085;-74
2020/12/18 08:39:35;;;;;;;16.67;9.48;;;5.60;99.90;;;;;;10350116;28;20052;-74
2020/12/18 08:44:41;;;;;;;17.13;9.88;;;5.80;99.90;;;;;;10359382;28;20080;-74
2020/12/18 08:49:43;;;;;;;17.33;10.93;;;5.90;99.90;;;;;;10349305;28;20054;-73
2020/12/18 08:54:44;;;;;;;11.23;8.68;;;5.80;99.90;;;;;;10359203;28;20129;-74
2020/12/18 09:00:15;;;;;;;17.67;10.90;;;5.90;99.90;;;;;;10349462;28;20058;-74
2020/12/18 09:05:36;;;;;;;21.00;12.80;;;5.90;99.90;;;;;;10369488;28;20081;-73
2020/12/18 09:10:42;;;;;;;17.95;11.13;;;6.10;99.90;;;;;;10340456;28;20046;-73
2020/12/18 09:15:46;;;;;;;20.20;13.85;;;6.10;99.90;;;;;;10367143;28;20046;-73
2020/12/18 09:20:47;;;;;;;28.33;15.02;;;6.20;99.90;;;;;;10339816;28;20401;-73
2020/12/18 09:25:50;;;;;;;33.95;17.23;;;6.20;99.90;;;;;;10382163;28;20129;-73
2020/12/18 09:30:56;;;;;;;22.70;14.27;;;6.30;99.90;;;;;;10348358;28;20088;-73
2020/12/18 09:36:06;;;;;;;24.45;14.40;;;6.50;99.90;;;;;;10355796;28;20050;-73
2020/12/18 09:41:12;;;;;;;21.43;12.70;;;6.70;99.90;;;;;;10340082;28;20050;-74
2020/12/18 09:46:16;;;;;;;16.80;13.02;;;6.70;99.90;;;;;;10364885;28;20050;-73
2020/12/18 09:51:18;;;;;;;19.65;14.32;;;6.70;99.90;;;;;;10362186;28;20060;-74
2020/12/18 09:56:20;;;;;;;18.75;13.15;;;6.80;99.90;;;;;;10359535;28;20054;-74
2020/12/18 10:01:23;;;;;;;24.35;16.67;;;6.80;99.90;;;;;;10352254;28;20141;-74
2020/12/18 10:06:27;;;;;;;22.25;15.15;;;6.80;99.90;;;;;;10358134;28;20081;-73
2020/12/18 10:11:29;;;;;;;18.35;13.82;;;6.80;99.90;;;;;;10354957;28;20049;-73
2020/12/18 10:16:30;;;;;;;15.82;11.70;;;6.90;99.90;;;;;;10352906;28;20133;-74
2020/12/18 10:21:31;;;;;;;16.60;11.40;;;7.00;99.90;;;;;;10357174;28;20072;-73
2020/12/18 10:26:33;;;;;;;16.83;12.27;;;7.10;99.90;;;;;;10359287;28;20044;-73
2020/12/18 10:31:34;;;;;;;17.80;13.27;;;7.10;99.90;;;;;;10371261;28;20045;-73
2020/12/18 10:36:36;;;;;;;12.93;10.55;;;7.20;99.90;;;;;;10349439;28;20093;-73
2020/12/18 10:41:40;;;;;;;14.95;11.30;;;7.40;99.90;;;;;;10354309;28;20153;-73
2020/12/18 10:46:47;;;;;;;12.45;9.82;;;7.60;99.90;;;;;;10348549;28;20133;-73
2020/12/18 10:51:48;;;;;;;13.95;10.23;;;7.60;99.90;;;;;;10352462;28;20125;-73
2020/12/18 10:56:55;;;;;;;15.23;10.10;;;7.70;99.90;;;;;;10354718;28;20401;-74
2020/12/18 11:01:57;;;;;;;10.77;9.13;;;7.90;99.90;;;;;;10360393;28;20125;-74
2020/12/18 11:06:59;;;;;;;13.27;11.07;;;7.90;99.90;;;;;;10355287;28;20037;-74
2020/12/18 11:12:01;;;;;;;11.30;9.48;;;7.90;99.90;;;;;;10353897;28;20054;-74
2020/12/18 11:17:03;;;;;;;13.75;11.07;;;8.00;99.90;;;;;;10354091;28;20052;-73
2020/12/18 11:22:06;;;;;;;16.35;12.77;;;8.10;99.90;;;;;;10357351;28;20046;-74
2020/12/18 11:27:07;;;;;;;14.93;11.43;;;8.20;99.90;;;;;;10360204;28;20487;-74
2020/12/18 11:32:09;;;;;;;13.35;8.65;;;8.30;99.90;;;;;;10350848;28;20071;-74
2020/12/18 11:37:10;;;;;;;9.18;6.95;;;8.60;99.90;;;;;;10359116;28;20042;-74
2020/12/18 11:42:13;;;;;;;10.18;8.68;;;9.00;99.90;;;;;;10349626;28;20061;-74
2020/12/18 11:47:15;;;;;;;11.07;8.27;;;9.20;99.90;;;;;;10355111;28;20046;-73
2020/12/18 11:52:16;;;;;;;8.75;6.70;;;9.20;99.90;;;;;;10346704;28;20052;-73
2020/12/18 11:57:20;;;;;;;8.80;4.97;;;9.40;99.90;;;;;;10351419;28;20042;-74
2020/12/18 12:02:22;;;;;;;15.63;10.50;;;9.50;99.90;;;;;;10359642;28;20049;-74
2020/12/18 12:07:23;;;;;;;7.97;4.43;;;9.60;99.90;;;;;;10349059;28;20553;-74
2020/12/18 12:12:24;;;;;;;6.40;3.53;;;9.70;99.90;;;;;;10361095;28;20050;-74
2020/12/18 12:17:26;;;;;;;7.75;3.58;;;9.70;99.90;;;;;;10371217;28;20534;-73
2020/12/18 12:22:27;;;;;;;6.20;3.83;;;9.60;99.90;;;;;;10360516;28;20068;-74
2020/12/18 12:27:29;;;;;;;5.50;3.40;;;9.70;99.90;;;;;;10362335;28;20212;-74
2020/12/18 12:32:30;;;;;;;5.07;2.97;;;9.80;99.90;;;;;;10363637;28;20141;-74
2020/12/18 12:37:32;;;;;;;7.72;3.40;;;9.80;99.80;;;;;;10368519;28;20074;-74
2020/12/18 12:42:37;;;;;;;6.65;4.75;;;10.00;99.90;;;;;;10357227;28;20053;-74
2020/12/18 12:47:39;;;;;;;7.55;5.05;;;10.00;99.60;;;;;;10357957;28;20050;-73
2020/12/18 12:52:40;;;;;;;5.88;4.50;;;10.00;99.50;;;;;;10362974;28;20545;-74
2020/12/18 12:57:42;;;;;;;7.40;4.80;;;10.00;99.70;;;;;;10364520;28;20042;-74
2020/12/18 13:02:43;;;;;;;7.78;4.80;;;10.00;99.50;;;;;;10365236;28;20486;-74
2020/12/18 13:07:45;;;;;;;6.40;3.90;;;10.00;99.60;;;;;;10364359;28;20045;-74
2020/12/18 13:12:46;;;;;;;6.00;3.97;;;10.10;99.30;;;;;;10356245;28;20140;-73
2020/12/18 13:17:48;;;;;;;6.28;4.32;;;10.10;99.20;;;;;;10371697;28;20093;-74
2020/12/18 13:22:49;;;;;;;7.90;4.10;;;10.10;99.00;;;;;;10359070;28;20079;-75
2020/12/18 13:27:52;;;;;;;7.55;4.30;;;9.90;98.90;;;;;;10359830;28;20549;-74
2020/12/18 13:32:54;;;;;;;6.80;4.18;;;9.90;99.10;;;;;;10354868;28;20046;-74
2020/12/18 13:37:56;;;;;;;5.75;3.90;;;9.90;99.00;;;;;;10353555;28;20050;-73
2020/12/18 13:42:57;;;;;;;11.25;4.05;;;9.90;99.00;;;;;;10349499;28;20108;-73
2020/12/18 13:47:59;;;;;;;6.45;4.05;;;9.90;99.10;;;;;;10352105;28;20496;-74
2020/12/18 13:53:00;;;;;;;7.22;3.60;;;10.00;99.00;;;;;;10353472;28;20050;-75
2020/12/18 13:58:06;;;;;;;7.20;4.28;;;10.00;99.10;;;;;;10331111;28;20046;-75
2020/12/18 14:03:07;;;;;;;9.40;4.28;;;10.10;99.00;;;;;;10348570;28;20089;-75
2020/12/18 14:08:10;;;;;;;7.88;4.00;;;10.20;98.90;;;;;;10380516;28;20054;-74
2020/12/18 14:13:13;;;;;;;6.47;4.00;;;10.00;98.70;;;;;;10364965;28;20137;-75
2020/12/18 14:18:15;;;;;;;9.57;5.38;;;10.00;98.80;;;;;;10365833;28;20057;-74
2020/12/18 14:23:17;;;;;;;12.23;6.00;;;9.80;98.50;;;;;;10365834;28;20453;-74
2020/12/18 14:28:18;;;;;;;11.95;5.88;;;9.60;98.60;;;;;;10366954;28;20054;-74
2020/12/18 14:33:22;;;;;;;8.93;5.65;;;9.50;98.70;;;;;;10364194;28;20065;-74
2020/12/18 14:38:26;;;;;;;9.10;5.53;;;9.40;98.90;;;;;;10363203;28;20094;-74
2020/12/18 14:43:30;;;;;;;13.82;6.68;;;9.20;99.20;;;;;;10363488;28;20504;-74
2020/12/18 14:48:32;;;;;;;13.65;6.70;;;9.20;99.40;;;;;;10332681;28;20058;-74
2020/12/18 14:53:35;;;;;;;14.63;8.27;;;9.00;99.10;;;;;;10343033;28;20038;-74
2020/12/18 14:58:40;;;;;;;11.07;7.38;;;8.90;99.00;;;;;;10283378;28;20465;-74
2020/12/18 15:03:41;;;;;;;12.07;7.25;;;8.70;99.30;;;;;;10352642;28;20425;-74
2020/12/18 15:08:43;;;;;;;14.80;12.32;;;8.70;99.70;;;;;;10330278;28;20070;-73
2020/12/18 15:13:44;;;;;;;14.35;11.27;;;8.50;99.80;;;;;;10327932;28;20050;-74
2020/12/18 15:18:46;;;;;;;15.25;11.45;;;8.30;99.90;;;;;;10329554;28;20125;-73
2020/12/18 15:23:47;;;;;;;16.17;11.05;;;8.20;99.90;;;;;;10365537;28;20142;-74
2020/12/18 15:28:49;;;;;;;14.77;10.68;;;8.10;99.90;;;;;;10330056;28;20050;-73
2020/12/18 15:33:50;;;;;;;13.15;10.15;;;8.00;99.90;;;;;;10352300;28;20548;-73
2020/12/18 15:38:52;;;;;;;16.77;10.57;;;7.90;99.50;;;;;;10331560;28;20042;-73
2020/12/18 15:43:53;;;;;;;15.13;10.77;;;7.70;99.90;;;;;;10331462;28;20069;-74
2020/12/18 15:48:55;;;;;;;15.68;11.00;;;7.60;99.90;;;;;;10373087;28;20053;-73
2020/12/18 15:53:57;;;;;;;14.25;10.07;;;7.40;99.90;;;;;;10339165;28;20058;-73
2020/12/18 15:58:59;;;;;;;17.98;11.10;;;7.30;99.90;;;;;;10361795;28;20053;-73
2020/12/18 16:04:01;;;;;;;15.00;11.50;;;7.20;99.90;;;;;;10373899;28;20546;-73
2020/12/18 16:09:03;;;;;;;21.33;14.48;;;7.10;99.90;;;;;;10373353;28;20046;-73
2020/12/18 16:14:05;;;;;;;24.02;14.85;;;7.00;99.90;;;;;;10371331;28;20046;-74
2020/12/18 16:19:06;;;;;;;21.60;15.18;;;7.00;99.90;;;;;;10373582;28;20054;-73
2020/12/18 16:24:09;;;;;;;26.17;16.98;;;6.90;99.90;;;;;;10337708;28;20128;-73
2020/12/18 16:29:11;;;;;;;27.15;16.85;;;6.80;99.90;;;;;;10369033;28;20042;-73
2020/12/18 16:34:13;;;;;;;32.55;19.10;;;6.80;99.90;;;;;;10354139;28;20046;-73
2020/12/18 16:39:14;;;;;;;30.73;17.92;;;6.90;99.90;;;;;;10358895;28;20050;-73
2020/12/18 16:44:16;;;;;;;24.15;15.40;;;6.80;99.90;;;;;;10363076;28;20545;-73
2020/12/18 16:49:17;;;;;;;25.52;15.38;;;6.80;99.90;;;;;;10364364;28;20077;-73
2020/12/18 16:54:19;;;;;;;22.80;14.70;;;6.80;99.90;;;;;;10357860;28;20425;-73
2020/12/18 16:59:20;;;;;;;31.98;17.30;;;6.80;99.90;;;;;;10355324;28;20562;-73
2020/12/18 17:04:22;;;;;;;29.05;17.52;;;6.70;99.90;;;;;;10360679;28;20466;-73
2020/12/18 17:09:24;;;;;;;33.25;20.80;;;6.60;99.90;;;;;;10369799;28;20502;-73
2020/12/18 17:14:25;;;;;;;36.95;20.33;;;6.60;99.90;;;;;;10355727;28;20177;-73
2020/12/18 17:19:27;;;;;;;29.38;16.50;;;6.60;99.90;;;;;;10357541;28;20060;-74
2020/12/18 17:24:29;;;;;;;31.38;15.77;;;6.50;99.90;;;;;;10356490;28;20065;-73
2020/12/18 17:29:31;;;;;;;32.70;17.98;;;6.40;99.90;;;;;;10360773;28;20053;-73
2020/12/18 17:34:33;;;;;;;29.65;16.70;;;6.40;99.90;;;;;;10360451;28;20202;-73
2020/12/18 17:39:35;;;;;;;33.53;18.02;;;6.40;99.90;;;;;;10366966;28;20058;-74
2020/12/18 17:44:38;;;;;;;43.47;23.30;;;6.40;99.90;;;;;;10355554;28;20141;-73
2020/12/18 17:49:40;;;;;;;34.72;19.63;;;6.50;99.90;;;;;;10354776;28;20058;-73
2020/12/18 17:54:41;;;;;;;34.72;19.95;;;6.40;99.90;;;;;;10355949;28;20046;-74
2020/12/18 17:59:43;;;;;;;34.95;19.25;;;6.60;99.90;;;;;;10357588;28;20042;-74
2020/12/18 18:04:44;;;;;;;28.05;17.08;;;6.80;99.90;;;;;;10360517;28;20470;-73
2020/12/18 18:09:46;;;;;;;30.80;19.08;;;6.80;99.90;;;;;;10359186;28;20037;-73
2020/12/18 18:14:47;;;;;;;35.97;19.92;;;7.00;99.90;;;;;;10360554;28;20081;-73
2020/12/18 18:19:52;;;;;;;34.45;19.90;;;7.00;99.90;;;;;;10362842;28;20406;-74
2020/12/18 18:24:54;;;;;;;44.08;25.55;;;7.10;99.90;;;;;;10357777;28;20049;-73
2020/12/18 18:29:55;;;;;;;35.78;21.15;;;7.10;99.90;;;;;;10354812;28;20056;-73
2020/12/18 18:34:57;;;;;;;53.92;26.60;;;7.10;99.90;;;;;;10359495;28;20053;-73
2020/12/18 18:39:59;;;;;;;61.75;29.08;;;7.00;99.90;;;;;;10358268;28;20418;-73
2020/12/18 18:45:01;;;;;;;53.95;33.20;;;6.90;99.90;;;;;;10348068;28;20045;-73
2020/12/18 18:50:02;;;;;;;61.60;29.83;;;7.10;99.90;;;;;;10349801;28;20092;-73
2020/12/18 18:55:05;;;;;;;59.70;28.55;;;7.10;99.90;;;;;;10363048;28;20140;-72
2020/12/18 19:00:07;;;;;;;63.80;30.02;;;7.00;99.90;;;;;;10356882;28;20146;-73
2020/12/18 19:05:16;;;;;;;68.10;31.67;;;7.00;99.90;;;;;;10351276;28;20038;-70
2020/12/18 19:10:17;;;;;;;76.88;32.15;;;7.10;99.90;;;;;;10354333;28;20497;-71
2020/12/18 19:15:19;;;;;;;56.58;28.67;;;7.10;99.90;;;;;;10356141;28;20070;-70
2020/12/18 19:20:21;;;;;;;60.35;28.40;;;7.20;99.90;;;;;;10359497;28;20470;-71
2020/12/18 19:25:22;;;;;;;40.47;20.25;;;7.30;99.90;;;;;;10363777;28;20061;-71
2020/12/18 19:30:24;;;;;;;39.95;21.85;;;7.30;99.90;;;;;;10365796;28;20077;-71
2020/12/18 19:35:25;;;;;;;56.10;28.90;;;7.50;99.90;;;;;;10366239;28;20235;-71
2020/12/18 19:40:27;;;;;;;60.50;28.65;;;7.50;99.90;;;;;;10354235;28;20391;-70
2020/12/18 19:45:31;;;;;;;55.58;27.88;;;7.50;99.90;;;;;;10361152;28;20054;-71
2020/12/18 19:50:32;;;;;;;54.25;25.55;;;7.50;99.90;;;;;;10360652;28;20580;-71
2020/12/18 19:55:34;;;;;;;56.80;27.83;;;7.50;99.90;;;;;;10347226;28;20046;-70
2020/12/18 20:00:36;;;;;;;56.78;27.73;;;7.40;99.90;;;;;;10359457;28;20554;-70
2020/12/18 20:05:38;;;;;;;54.53;26.75;;;7.30;99.90;;;;;;10364199;28;20041;-71
2020/12/18 20:10:39;;;;;;;58.88;27.40;;;7.40;99.90;;;;;;10362517;28;20425;-71
2020/12/18 20:15:40;;;;;;;53.35;25.17;;;7.30;99.90;;;;;;10358792;28;20486;-71
2020/12/18 20:20:45;;;;;;;48.13;24.20;;;7.20;99.90;;;;;;10362679;28;20105;-71
2020/12/18 20:25:46;;;;;;;52.28;24.20;;;7.20;99.90;;;;;;10362711;28;20092;-70
2020/12/18 20:30:47;;;;;;;50.72;24.65;;;7.20;99.90;;;;;;10362903;28;20057;-70
2020/12/18 20:35:49;;;;;;;46.33;23.85;;;7.10;99.90;;;;;;10363496;28;20161;-70
2020/12/18 20:40:50;;;;;;;51.38;25.35;;;7.20;99.90;;;;;;10366457;28;20125;-70
2020/12/18 20:45:52;;;;;;;45.50;23.45;;;7.10;99.90;;;;;;10356155;28;20457;-71
2020/12/18 20:50:54;;;;;;;49.17;24.95;;;7.10;99.90;;;;;;10371857;28;20042;-71
2020/12/18 20:55:56;;;;;;;50.08;23.98;;;7.00;99.90;;;;;;10363701;28;20078;-71
2020/12/18 21:00:58;;;;;;;39.85;22.45;;;7.00;99.90;;;;;;10367273;28;20524;-71
2020/12/18 21:05:59;;;;;;;44.72;23.33;;;7.00;99.90;;;;;;10370920;28;20054;-71
2020/12/18 21:11:01;;;;;;;38.65;21.15;;;6.80;99.90;;;;;;10370005;28;20069;-70
2020/12/18 21:16:03;;;;;;;38.80;20.60;;;6.80;99.90;;;;;;10371684;28;20092;-71
2020/12/18 21:21:04;;;;;;;39.60;21.23;;;6.90;99.90;;;;;;10355407;28;20137;-70
2020/12/18 21:26:06;;;;;;;45.83;22.13;;;6.90;99.90;;;;;;10366440;28;20054;-71
2020/12/18 21:31:08;;;;;;;49.10;23.38;;;7.00;99.90;;;;;;10352554;28;20062;-71
2020/12/18 21:36:10;;;;;;;51.22;24.70;;;6.90;99.90;;;;;;10353207;28;20100;-71
2020/12/18 21:41:11;;;;;;;54.65;23.58;;;6.80;99.90;;;;;;10349093;28;20057;-71
2020/12/18 21:46:16;;;;;;;52.08;23.48;;;6.70;99.90;;;;;;10369827;28;20045;-71
2020/12/18 21:51:17;;;;;;;47.67;22.65;;;6.60;99.90;;;;;;10347402;28;20108;-71
2020/12/18 21:56:19;;;;;;;62.25;26.58;;;6.60;99.90;;;;;;10355480;28;20578;-70
2020/12/18 22:01:21;;;;;;;39.92;21.33;;;6.60;99.90;;;;;;10362205;28;20157;-70
2020/12/18 22:06:22;;;;;;;42.35;21.98;;;6.70;99.90;;;;;;10370825;28;20073;-70
2020/12/18 22:11:24;;;;;;;75.50;27.92;;;6.80;99.90;;;;;;10360934;28;20146;-70
2020/12/18 22:16:28;;;;;;;48.25;22.92;;;6.80;99.90;;;;;;10368919;28;20084;-70
2020/12/18 22:21:29;;;;;;;51.45;24.33;;;6.60;99.90;;;;;;10365529;28;20306;-70
2020/12/18 22:26:31;;;;;;;55.20;25.35;;;6.70;99.90;;;;;;10358043;28;20132;-70
2020/12/18 22:31:32;;;;;;;47.30;23.58;;;6.70;99.90;;;;;;10360122;28;20082;-70
2020/12/18 22:36:35;;;;;;;49.00;23.38;;;6.70;99.90;;;;;;10352729;28;20330;-70
2020/12/18 22:41:37;;;;;;;75.90;28.08;;;6.80;99.90;;;;;;10364797;28;20092;-70
2020/12/18 22:46:39;;;;;;;195.02;33.17;;;6.80;99.90;;;;;;10368500;28;20517;-70
2020/12/18 22:51:40;;;;;;;159.73;30.92;;;6.80;99.90;;;;;;10363381;28;20178;-70
2020/12/18 22:56:44;;;;;;;100.10;25.50;;;6.80;99.90;;;;;;10368569;28;20130;-70
2020/12/18 23:01:50;;;;;;;173.80;30.35;;;7.00;99.90;;;;;;10358298;28;20133;-70
2020/12/18 23:06:52;;;;;;;218.40;25.35;;;7.00;99.90;;;;;;10368395;28;20076;-70
2020/12/18 23:11:54;;;;;;;105.25;28.83;;;7.10;99.90;;;;;;10365575;28;20173;-70
2020/12/18 23:16:55;;;;;;;186.68;32.13;;;7.10;99.90;;;;;;10346370;28;20128;-70
2020/12/18 23:21:57;;;;;;;126.40;31.40;;;7.20;99.90;;;;;;10346611;28;20504;-70
2020/12/18 23:27:01;;;;;;;99.38;30.52;;;7.10;99.90;;;;;;10345719;28;20050;-70
2020/12/18 23:32:03;;;;;;;102.72;28.38;;;7.10;99.90;;;;;;10367662;28;21230;-70
2020/12/18 23:37:04;;;;;;;100.28;28.85;;;7.10;99.90;;;;;;10363567;28;20108;-70
2020/12/18 23:42:06;;;;;;;125.43;32.40;;;7.00;99.90;;;;;;10342308;28;20502;-70
2020/12/18 23:47:07;;;;;;;166.32;35.90;;;7.00;99.90;;;;;;10351610;28;20465;-70
2020/12/18 23:52:09;;;;;;;142.18;32.75;;;7.00;99.90;;;;;;10366948;28;20093;-70
2020/12/18 23:57:12;;;;;;;132.18;33.55;;;6.90;99.90;;;;;;10344279;28;20050;-70
